Time;durP1;ratioP1;P1;durP2;ratioP2;P2;SDS_P1;SDS_P2;PMS_P1;PMS_P2;Temp;Humidity;BMP_temperature;BMP_pressure;BME280_temperature;BME280_humidity;BME280_pressure;Samples;Min_cycle;Max_cycle;Signal;HPM_P1;HPM_P2
2022/10/10 00:00:53;;;;;;;1.17;0.70;;;;;;;;;;4492127;28;20121;-58
2022/10/10 00:03:04;;;;;;;1.08;0.60;;;;;;;;;;4491724;28;20045;-58
2022/10/10 00:05:14;;;;;;;0.88;0.77;;;;;;;;;;4476579;28;20026;-58
2022/10/10 00:07:25;;;;;;;1.10;0.57;;;;;;;;;;4492436;28;20042;-58
2022/10/10 00:09:35;;;;;;;0.80;0.77;;;;;;;;;;4490630;28;27694;-58
2022/10/10 00:11:45;;;;;;;0.90;0.60;;;;;;;;;;4489855;28;29323;-58
2022/10/10 00:13:56;;;;;;;1.10;0.70;;;;;;;;;;4491246;28;20038;-59
2022/10/10 00:16:07;;;;;;;1.13;0.77;;;;;;;;;;4490720;28;20038;-58
2022/10/10 00:18:17;;;;;;;1.17;0.73;;;;;;;;;;4490281;28;20065;-58
2022/10/10 00:20:28;;;;;;;0.85;0.70;;;;;;;;;;4489805;28;20030;-58
2022/10/10 00:22:38;;;;;;;0.60;0.60;;;;;;;;;;4490491;28;27815;-58
2022/10/10 00:24:49;;;;;;;0.98;0.70;;;;;;;;;;4491206;28;20500;-59
2022/10/10 00:26:59;;;;;;;0.73;0.73;;;;;;;;;;4491260;28;20703;-58
2022/10/10 00:29:09;;;;;;;0.77;0.60;;;;;;;;;;4491999;28;20069;-58
2022/10/10 00:31:20;;;;;;;0.60;0.60;;;;;;;;;;4491612;28;39639;-58
2022/10/10 00:33:31;;;;;;;1.02;0.70;;;;;;;;;;4490829;28;20042;-58
2022/10/10 00:35:41;;;;;;;0.60;0.57;;;;;;;;;;4490639;28;27845;-58
2022/10/10 00:37:51;;;;;;;1.05;0.45;;;;;;;;;;4499968;28;20429;-58
2022/10/10 00:40:03;;;;;;;1.08;0.80;;;;;;;;;;4492112;28;20030;-59
2022/10/10 00:42:15;;;;;;;0.60;0.60;;;;;;;;;;4504695;28;20034;-58
2022/10/10 00:44:26;;;;;;;1.15;0.63;;;;;;;;;;4490927;28;20742;-58
2022/10/10 00:46:37;;;;;;;0.95;0.70;;;;;;;;;;4487556;28;20630;-58
2022/10/10 00:48:48;;;;;;;0.68;0.60;;;;;;;;;;4490856;28;20133;-58
2022/10/10 00:51:11;;;;;;;1.35;0.63;;;;;;;;;;4493013;28;20485;-59
2022/10/10 00:53:25;;;;;;;0.70;0.70;;;;;;;;;;4490339;28;20088;-58
2022/10/10 00:55:36;;;;;;;0.60;0.60;;;;;;;;;;4490291;28;20034;-58
2022/10/10 00:57:46;;;;;;;0.75;0.70;;;;;;;;;;4490889;28;20030;-58
2022/10/10 00:59:58;;;;;;;0.73;0.60;;;;;;;;;;4489941;28;31865;-58
2022/10/10 01:02:09;;;;;;;0.75;0.60;;;;;;;;;;4489637;28;20106;-59
2022/10/10 01:04:37;;;;;;;0.60;0.50;;;;;;;;;;4489282;28;42293;-58
2022/10/10 01:06:47;;;;;;;0.70;0.70;;;;;;;;;;4490776;28;20126;-58
2022/10/10 01:08:58;;;;;;;0.70;0.70;;;;;;;;;;4494388;28;37074;-58
2022/10/10 01:11:25;;;;;;;0.98;0.80;;;;;;;;;;4494899;28;20500;-58
2022/10/10 01:13:51;;;;;;;0.50;0.50;;;;;;;;;;4490008;28;20093;-58
2022/10/10 01:16:11;;;;;;;0.60;0.50;;;;;;;;;;4495409;28;20080;-58
2022/10/10 01:18:43;;;;;;;0.70;0.70;;;;;;;;;;4489794;28;20038;-58
2022/10/10 01:21:01;;;;;;;0.70;0.63;;;;;;;;;;4490650;28;20069;-58
2022/10/10 01:23:49;;;;;;;0.70;0.70;;;;;;;;;;4493242;28;20124;-58
2022/10/10 01:26:11;;;;;;;0.65;0.65;;;;;;;;;;4490552;28;20041;-59
2022/10/10 01:28:29;;;;;;;0.77;0.70;;;;;;;;;;4491403;28;20103;-58
2022/10/10 01:30:40;;;;;;;0.63;0.60;;;;;;;;;;4493629;28;20104;-58
2022/10/10 01:32:57;;;;;;;0.70;0.65;;;;;;;;;;4502343;28;20160;-58
2022/10/10 01:35:43;;;;;;;0.88;0.60;;;;;;;;;;4492514;28;20045;-58
2022/10/10 01:38:04;;;;;;;0.98;0.80;;;;;;;;;;4461796;28;20053;-58
2022/10/10 01:40:28;;;;;;;0.68;0.57;;;;;;;;;;4495927;28;20080;-58
2022/10/10 01:43:03;;;;;;;0.70;0.60;;;;;;;;;;4493566;28;20598;-58
2022/10/10 01:45:13;;;;;;;0.85;0.70;;;;;;;;;;4499344;28;21042;-58
2022/10/10 01:47:24;;;;;;;0.75;0.65;;;;;;;;;;4493697;28;20038;-58
2022/10/10 01:49:34;;;;;;;0.60;0.50;;;;;;;;;;4492931;28;20030;-58
2022/10/10 01:51:53;;;;;;;0.50;0.50;;;;;;;;;;4493034;28;20595;-58
2022/10/10 01:54:32;;;;;;;0.70;0.60;;;;;;;;;;4494334;28;20125;-58
2022/10/10 01:57:06;;;;;;;0.57;0.50;;;;;;;;;;4493420;28;20089;-58
2022/10/10 01:59:33;;;;;;;0.65;0.65;;;;;;;;;;4501296;28;20030;-58
2022/10/10 02:01:46;;;;;;;1.05;0.70;;;;;;;;;;4492912;28;20125;-58
2022/10/10 02:04:05;;;;;;;0.70;0.50;;;;;;;;;;4492054;28;20148;-58
2022/10/10 02:06:22;;;;;;;0.98;0.70;;;;;;;;;;4495957;28;20044;-58
2022/10/10 02:08:52;;;;;;;1.65;0.70;;;;;;;;;;4491962;28;20026;-58
2022/10/10 02:11:05;;;;;;;0.70;0.60;;;;;;;;;;4495255;28;20085;-59
2022/10/10 02:13:17;;;;;;;0.70;0.70;;;;;;;;;;4500505;28;20038;-58
2022/10/10 02:15:32;;;;;;;0.70;0.70;;;;;;;;;;4508217;28;20116;-58
2022/10/10 02:17:44;;;;;;;1.13;0.70;;;;;;;;;;4498617;28;20026;-58
2022/10/10 02:19:58;;;;;;;1.08;0.60;;;;;;;;;;4501488;28;20096;-58
2022/10/10 02:22:09;;;;;;;1.05;0.60;;;;;;;;;;4495686;28;20148;-58
2022/10/10 02:24:22;;;;;;;0.60;0.60;;;;;;;;;;4490769;28;41150;-58
2022/10/10 02:26:32;;;;;;;0.65;0.63;;;;;;;;;;4497434;28;20881;-58
2022/10/10 02:28:54;;;;;;;0.93;0.60;;;;;;;;;;4491386;28;20077;-58
2022/10/10 02:31:08;;;;;;;0.90;0.70;;;;;;;;;;4501181;28;20104;-58
2022/10/10 02:33:24;;;;;;;1.02;0.80;;;;;;;;;;4500967;28;20033;-58
2022/10/10 02:35:38;;;;;;;1.45;0.80;;;;;;;;;;4508049;28;20036;-58
2022/10/10 02:37:48;;;;;;;1.30;0.75;;;;;;;;;;4507232;28;20048;-61
2022/10/10 02:40:00;;;;;;;0.60;0.60;;;;;;;;;;4490008;28;23174;-59
2022/10/10 02:42:12;;;;;;;0.88;0.80;;;;;;;;;;4497570;28;20029;-59
2022/10/10 02:44:23;;;;;;;0.88;0.80;;;;;;;;;;4494169;28;20637;-59
2022/10/10 02:46:33;;;;;;;0.60;0.60;;;;;;;;;;4494459;28;20073;-59
2022/10/10 02:48:44;;;;;;;1.08;0.95;;;;;;;;;;4491301;28;36615;-59
2022/10/10 02:50:55;;;;;;;1.00;0.77;;;;;;;;;;4493398;28;36277;-59
2022/10/10 02:53:05;;;;;;;1.05;0.80;;;;;;;;;;4492976;28;20042;-59
2022/10/10 02:55:16;;;;;;;1.00;0.90;;;;;;;;;;4491100;28;30190;-59
2022/10/10 02:57:26;;;;;;;0.95;0.65;;;;;;;;;;4490883;28;20485;-59
2022/10/10 02:59:37;;;;;;;1.38;0.90;;;;;;;;;;4492167;28;20045;-59
2022/10/10 03:01:47;;;;;;;0.80;0.70;;;;;;;;;;4492181;28;39266;-59
2022/10/10 03:03:57;;;;;;;0.88;0.70;;;;;;;;;;4491019;28;20140;-59
2022/10/10 03:06:08;;;;;;;0.80;0.80;;;;;;;;;;4491799;28;36524;-59
2022/10/10 03:08:18;;;;;;;1.00;0.70;;;;;;;;;;4492732;28;20396;-59
2022/10/10 03:10:29;;;;;;;1.50;0.80;;;;;;;;;;4491287;28;41536;-58
2022/10/10 03:12:39;;;;;;;1.60;0.85;;;;;;;;;;4492924;28;20141;-59
2022/10/10 03:14:49;;;;;;;0.95;0.80;;;;;;;;;;4500493;28;24118;-59
2022/10/10 03:17:00;;;;;;;0.90;0.80;;;;;;;;;;4492921;28;25961;-59
2022/10/10 03:19:10;;;;;;;1.05;0.90;;;;;;;;;;4491521;28;23705;-59
2022/10/10 03:21:20;;;;;;;1.05;0.85;;;;;;;;;;4493099;28;20038;-58
2022/10/10 03:23:31;;;;;;;1.02;0.80;;;;;;;;;;4493087;28;20500;-59
2022/10/10 03:25:42;;;;;;;1.17;0.70;;;;;;;;;;4499594;28;20566;-58
2022/10/10 03:27:53;;;;;;;1.27;0.90;;;;;;;;;;4500277;28;20124;-59
2022/10/10 03:30:04;;;;;;;0.82;0.80;;;;;;;;;;4492861;28;20038;-58
2022/10/10 03:32:14;;;;;;;0.90;0.70;;;;;;;;;;4492275;28;20673;-58
2022/10/10 03:34:24;;;;;;;1.15;0.80;;;;;;;;;;4491004;28;36034;-59
2022/10/10 03:36:35;;;;;;;1.00;0.80;;;;;;;;;;4490043;28;20042;-59
2022/10/10 03:38:45;;;;;;;1.05;0.80;;;;;;;;;;4492472;28;39012;-59
2022/10/10 03:40:56;;;;;;;0.80;0.80;;;;;;;;;;4489867;28;20469;-59
2022/10/10 03:43:07;;;;;;;1.13;0.77;;;;;;;;;;4492691;28;21196;-59
2022/10/10 03:45:17;;;;;;;1.20;0.80;;;;;;;;;;4491408;28;20034;-59
2022/10/10 03:47:28;;;;;;;1.77;0.80;;;;;;;;;;4498305;28;20525;-59
2022/10/10 03:49:38;;;;;;;1.10;0.93;;;;;;;;;;4490110;28;37230;-59
2022/10/10 03:51:49;;;;;;;1.33;0.80;;;;;;;;;;4491737;28;20556;-58
2022/10/10 03:53:59;;;;;;;1.38;0.90;;;;;;;;;;4497347;28;20050;-59
2022/10/10 03:56:09;;;;;;;1.00;0.80;;;;;;;;;;4490725;28;20026;-58
2022/10/10 03:58:20;;;;;;;0.77;0.73;;;;;;;;;;4490227;28;37019;-59
2022/10/10 04:00:30;;;;;;;1.25;0.98;;;;;;;;;;4491747;28;20519;-59
2022/10/10 04:02:41;;;;;;;1.15;0.80;;;;;;;;;;4491439;28;20038;-58
2022/10/10 04:04:53;;;;;;;1.05;0.80;;;;;;;;;;4493012;28;20501;-59
2022/10/10 04:07:03;;;;;;;0.75;0.68;;;;;;;;;;4491969;28;20092;-59
2022/10/10 04:09:13;;;;;;;0.77;0.70;;;;;;;;;;4492532;28;20113;-58
2022/10/10 04:11:24;;;;;;;1.10;0.80;;;;;;;;;;4492163;28;20038;-58
2022/10/10 04:13:34;;;;;;;1.00;0.90;;;;;;;;;;4490843;28;40885;-59
2022/10/10 04:15:45;;;;;;;0.82;0.82;;;;;;;;;;4490278;28;20049;-59
2022/10/10 04:17:55;;;;;;;0.82;0.70;;;;;;;;;;4490359;28;20038;-58
2022/10/10 04:20:06;;;;;;;1.30;0.90;;;;;;;;;;4491321;28;20043;-58
2022/10/10 04:22:16;;;;;;;1.20;1.00;;;;;;;;;;4492423;28;20588;-59
2022/10/10 04:24:27;;;;;;;0.90;0.80;;;;;;;;;;4505538;28;20633;-59
2022/10/10 04:26:37;;;;;;;1.08;0.80;;;;;;;;;;4491988;28;20305;-59
2022/10/10 04:28:48;;;;;;;1.20;0.80;;;;;;;;;;4490775;28;31659;-59
2022/10/10 04:30:58;;;;;;;1.20;0.98;;;;;;;;;;4491224;28;20433;-59
2022/10/10 04:33:09;;;;;;;0.93;0.80;;;;;;;;;;4491402;28;44989;-59
2022/10/10 04:35:19;;;;;;;0.80;0.80;;;;;;;;;;4489847;28;20085;-58
2022/10/10 04:37:30;;;;;;;0.73;0.73;;;;;;;;;;4491076;28;22524;-59
2022/10/10 04:39:40;;;;;;;0.98;0.80;;;;;;;;;;4490248;28;20026;-59
2022/10/10 04:41:50;;;;;;;1.70;1.17;;;;;;;;;;4490250;28;42130;-58
2022/10/10 04:44:01;;;;;;;0.90;0.90;;;;;;;;;;4491352;28;20045;-58
2022/10/10 04:46:11;;;;;;;1.50;1.20;;;;;;;;;;4488865;28;31906;-59
2022/10/10 04:48:22;;;;;;;1.40;1.10;;;;;;;;;;4490583;28;26375;-59
2022/10/10 04:50:32;;;;;;;2.10;1.20;;;;;;;;;;4477670;28;20038;-59
2022/10/10 04:52:42;;;;;;;1.48;1.15;;;;;;;;;;4490463;28;20093;-58
2022/10/10 04:54:53;;;;;;;1.65;1.02;;;;;;;;;;4490552;28;20089;-58
2022/10/10 04:57:04;;;;;;;1.13;1.00;;;;;;;;;;4489228;28;20046;-58
2022/10/10 04:59:14;;;;;;;1.65;0.90;;;;;;;;;;4491667;28;20030;-59
2022/10/10 05:01:25;;;;;;;1.55;0.80;;;;;;;;;;4489855;28;20590;-59
2022/10/10 05:03:35;;;;;;;1.35;0.90;;;;;;;;;;4492538;28;20030;-59
2022/10/10 05:05:45;;;;;;;1.27;0.80;;;;;;;;;;4493851;28;33019;-59
2022/10/10 05:07:56;;;;;;;0.80;0.70;;;;;;;;;;4492505;28;31231;-59
2022/10/10 05:10:07;;;;;;;1.08;0.90;;;;;;;;;;4493716;28;20460;-59
2022/10/10 05:12:17;;;;;;;1.02;0.90;;;;;;;;;;4502167;28;20591;-59
2022/10/10 05:14:27;;;;;;;1.00;0.90;;;;;;;;;;4494799;28;20034;-59
2022/10/10 05:16:38;;;;;;;0.85;0.80;;;;;;;;;;4501048;28;20044;-59
2022/10/10 05:18:48;;;;;;;1.10;0.90;;;;;;;;;;4492450;28;23871;-59
2022/10/10 05:20:59;;;;;;;0.95;0.80;;;;;;;;;;4493165;28;28270;-60
2022/10/10 05:23:09;;;;;;;1.42;1.17;;;;;;;;;;4492657;28;25607;-58
2022/10/10 05:25:19;;;;;;;1.02;0.93;;;;;;;;;;4493718;28;20544;-58
2022/10/10 05:27:30;;;;;;;1.00;0.90;;;;;;;;;;4493579;28;33215;-59
2022/10/10 05:29:40;;;;;;;1.00;0.90;;;;;;;;;;4492908;28;20041;-59
2022/10/10 05:31:50;;;;;;;1.15;0.90;;;;;;;;;;4492744;28;26584;-59
2022/10/10 05:34:01;;;;;;;1.55;0.80;;;;;;;;;;4492954;28;24293;-59
2022/10/10 05:36:12;;;;;;;1.00;0.80;;;;;;;;;;4493665;28;20046;-59
2022/10/10 05:38:23;;;;;;;0.93;0.90;;;;;;;;;;4491250;28;20034;-59
2022/10/10 05:40:33;;;;;;;1.25;0.90;;;;;;;;;;4495527;28;39222;-59
2022/10/10 05:42:44;;;;;;;1.05;0.95;;;;;;;;;;4493569;28;27699;-59
2022/10/10 05:44:54;;;;;;;1.40;1.00;;;;;;;;;;4479658;28;20484;-59
2022/10/10 05:47:04;;;;;;;2.63;1.13;;;;;;;;;;4492844;28;20036;-59
2022/10/10 05:49:15;;;;;;;2.00;1.10;;;;;;;;;;4494901;28;20033;-59
2022/10/10 05:51:25;;;;;;;1.20;0.90;;;;;;;;;;4493583;28;20078;-59
2022/10/10 05:53:36;;;;;;;1.13;1.00;;;;;;;;;;4493193;28;20029;-59
2022/10/10 05:55:46;;;;;;;1.08;0.90;;;;;;;;;;4496205;28;20034;-58
2022/10/10 05:57:56;;;;;;;1.00;0.90;;;;;;;;;;4492408;28;20068;-58
2022/10/10 06:00:07;;;;;;;0.98;0.88;;;;;;;;;;4495740;28;20026;-59
2022/10/10 06:02:18;;;;;;;1.00;0.90;;;;;;;;;;4493536;28;20042;-59
2022/10/10 06:04:28;;;;;;;1.90;1.10;;;;;;;;;;4493333;28;20599;-59
2022/10/10 06:06:39;;;;;;;2.00;1.10;;;;;;;;;;4494664;28;20080;-59
2022/10/10 06:08:50;;;;;;;2.28;1.20;;;;;;;;;;4494540;28;20051;-59
2022/10/10 06:11:06;;;;;;;1.52;1.10;;;;;;;;;;4491655;28;20042;-59
2022/10/10 06:13:17;;;;;;;1.20;1.10;;;;;;;;;;4501760;28;20202;-59
2022/10/10 06:15:28;;;;;;;1.63;1.15;;;;;;;;;;4490939;28;20037;-58
2022/10/10 06:17:38;;;;;;;1.42;1.10;;;;;;;;;;4484004;28;20664;-59
2022/10/10 06:19:49;;;;;;;2.05;1.20;;;;;;;;;;4495131;28;20038;-58
2022/10/10 06:22:00;;;;;;;1.73;1.25;;;;;;;;;;4491893;28;20468;-60
2022/10/10 06:24:10;;;;;;;1.40;1.30;;;;;;;;;;4493806;28;20045;-60
2022/10/10 06:26:21;;;;;;;2.45;1.42;;;;;;;;;;4492798;28;20437;-60
2022/10/10 06:28:31;;;;;;;2.05;1.30;;;;;;;;;;4492995;28;20049;-60
2022/10/10 06:30:43;;;;;;;1.50;1.25;;;;;;;;;;4493526;28;20030;-60
2022/10/10 06:32:53;;;;;;;1.95;1.00;;;;;;;;;;4492284;28;20037;-60
2022/10/10 06:35:04;;;;;;;1.45;1.17;;;;;;;;;;4484602;28;20039;-60
2022/10/10 06:37:15;;;;;;;1.80;0.95;;;;;;;;;;4492415;28;20048;-60
2022/10/10 06:39:25;;;;;;;1.40;1.10;;;;;;;;;;4493560;28;20038;-59
2022/10/10 06:41:36;;;;;;;1.40;1.02;;;;;;;;;;4499944;28;20026;-60
2022/10/10 06:43:53;;;;;;;1.70;1.10;;;;;;;;;;4492981;28;20038;-60
2022/10/10 06:46:04;;;;;;;1.35;1.10;;;;;;;;;;4492064;28;20037;-60
2022/10/10 06:48:14;;;;;;;1.35;1.10;;;;;;;;;;4490552;28;20112;-60
2022/10/10 06:50:25;;;;;;;1.88;1.20;;;;;;;;;;4493508;28;20048;-62
2022/10/10 06:52:36;;;;;;;1.10;1.00;;;;;;;;;;4492233;28;20061;-61
2022/10/10 06:54:46;;;;;;;1.55;1.20;;;;;;;;;;4490498;28;25441;-63
2022/10/10 06:56:56;;;;;;;1.40;1.30;;;;;;;;;;4491786;28;20034;-60
2022/10/10 06:59:07;;;;;;;1.52;1.30;;;;;;;;;;4491798;28;22655;-60
2022/10/10 07:01:19;;;;;;;1.88;1.45;;;;;;;;;;4492259;28;43436;-58
2022/10/10 07:03:30;;;;;;;1.50;1.40;;;;;;;;;;4491133;28;20617;-57
2022/10/10 07:05:40;;;;;;;2.03;1.50;;;;;;;;;;4492177;28;20030;-57
2022/10/10 07:07:51;;;;;;;2.03;1.60;;;;;;;;;;4492123;28;31687;-57
2022/10/10 07:10:01;;;;;;;1.50;1.20;;;;;;;;;;4493917;28;20034;-57
2022/10/10 07:12:12;;;;;;;1.75;1.20;;;;;;;;;;4491992;28;20105;-58
2022/10/10 07:14:23;;;;;;;1.80;1.30;;;;;;;;;;4491252;28;20045;-58
2022/10/10 07:16:33;;;;;;;1.52;1.25;;;;;;;;;;4492464;28;20129;-58
2022/10/10 07:18:44;;;;;;;2.15;1.35;;;;;;;;;;4492623;28;20040;-58
2022/10/10 07:20:59;;;;;;;1.65;1.35;;;;;;;;;;4492439;28;20379;-58
2022/10/10 07:23:09;;;;;;;1.40;1.20;;;;;;;;;;4492311;28;20037;-58
2022/10/10 07:25:19;;;;;;;1.65;1.40;;;;;;;;;;4491354;28;20034;-58
2022/10/10 07:27:30;;;;;;;1.25;1.05;;;;;;;;;;4490731;28;20104;-58
2022/10/10 07:29:40;;;;;;;1.55;1.27;;;;;;;;;;4491998;28;28680;-58
2022/10/10 07:31:51;;;;;;;1.88;1.30;;;;;;;;;;4493503;28;20034;-58
2022/10/10 07:34:01;;;;;;;3.17;1.10;;;;;;;;;;4491292;28;21687;-58
2022/10/10 07:36:12;;;;;;;1.63;1.20;;;;;;;;;;4489559;28;20555;-59
2022/10/10 07:38:22;;;;;;;3.25;1.20;;;;;;;;;;4489413;28;20202;-58
2022/10/10 07:40:33;;;;;;;2.05;1.33;;;;;;;;;;4492813;28;25252;-58
2022/10/10 07:42:43;;;;;;;1.90;1.40;;;;;;;;;;4497208;28;20052;-59
2022/10/10 07:44:54;;;;;;;1.60;1.20;;;;;;;;;;4491262;28;20038;-58
2022/10/10 07:47:04;;;;;;;2.67;1.30;;;;;;;;;;4498956;28;20029;-58
2022/10/10 07:49:15;;;;;;;2.35;1.40;;;;;;;;;;4492120;28;20070;-58
2022/10/10 07:51:25;;;;;;;2.38;1.40;;;;;;;;;;4490726;28;24621;-58
2022/10/10 07:53:35;;;;;;;1.42;1.10;;;;;;;;;;4492922;28;20019;-58
2022/10/10 07:55:46;;;;;;;1.95;1.35;;;;;;;;;;4493154;28;35355;-58
2022/10/10 07:57:58;;;;;;;2.10;1.30;;;;;;;;;;4491702;28;20030;-59
2022/10/10 08:00:09;;;;;;;1.83;1.25;;;;;;;;;;4500216;28;20092;-58
2022/10/10 08:02:22;;;;;;;1.88;1.30;;;;;;;;;;4490390;28;20027;-58
2022/10/10 08:04:34;;;;;;;2.15;1.30;;;;;;;;;;4492124;28;20041;-58
2022/10/10 08:06:45;;;;;;;1.30;1.20;;;;;;;;;;4492194;28;20036;-58
2022/10/10 08:08:55;;;;;;;2.28;1.27;;;;;;;;;;4492527;28;20084;-58
2022/10/10 08:11:07;;;;;;;1.73;1.20;;;;;;;;;;4492424;28;20044;-58
2022/10/10 08:13:17;;;;;;;1.48;1.20;;;;;;;;;;4493258;28;20069;-58
2022/10/10 08:15:28;;;;;;;1.77;1.10;;;;;;;;;;4492241;28;20038;-59
2022/10/10 08:17:38;;;;;;;1.60;1.20;;;;;;;;;;4491188;28;20464;-58
2022/10/10 08:19:48;;;;;;;1.58;1.48;;;;;;;;;;4489612;28;31514;-58
2022/10/10 08:21:59;;;;;;;1.88;1.60;;;;;;;;;;4492923;28;20568;-58
2022/10/10 08:24:09;;;;;;;2.25;1.88;;;;;;;;;;4477756;28;20954;-58
2022/10/10 08:26:20;;;;;;;2.30;1.50;;;;;;;;;;4478829;28;22199;-58
2022/10/10 08:28:30;;;;;;;1.45;1.10;;;;;;;;;;4499315;28;20152;-59
2022/10/10 08:30:41;;;;;;;1.52;1.35;;;;;;;;;;4491298;28;20111;-58
2022/10/10 08:32:51;;;;;;;1.70;1.40;;;;;;;;;;4492109;28;20480;-58
2022/10/10 08:35:02;;;;;;;1.60;1.50;;;;;;;;;;4490855;28;20090;-58
2022/10/10 08:37:12;;;;;;;1.88;1.20;;;;;;;;;;4490401;28;20812;-58
2022/10/10 08:39:23;;;;;;;1.65;1.10;;;;;;;;;;4492071;28;20915;-58
2022/10/10 08:41:36;;;;;;;1.23;1.10;;;;;;;;;;4493528;28;20066;-58
2022/10/10 08:43:50;;;;;;;1.52;1.20;;;;;;;;;;4490255;28;21493;-58
2022/10/10 08:46:12;;;;;;;1.98;1.30;;;;;;;;;;4491423;28;20023;-58
2022/10/10 08:48:24;;;;;;;1.70;1.15;;;;;;;;;;4495085;28;20660;-58
2022/10/10 08:50:39;;;;;;;1.45;1.10;;;;;;;;;;4490650;28;20038;-58
2022/10/10 08:52:58;;;;;;;2.55;1.15;;;;;;;;;;4490617;28;20439;-58
2022/10/10 08:55:23;;;;;;;1.38;1.10;;;;;;;;;;4489954;28;20570;-58
2022/10/10 08:58:06;;;;;;;1.80;1.20;;;;;;;;;;4477645;28;20124;-58
2022/10/10 09:00:20;;;;;;;2.55;1.30;;;;;;;;;;4482342;28;20529;-58
2022/10/10 09:02:56;;;;;;;2.20;1.50;;;;;;;;;;4492389;28;20066;-58
2022/10/10 09:05:13;;;;;;;1.92;1.20;;;;;;;;;;4490365;28;20037;-58
2022/10/10 09:07:42;;;;;;;2.72;1.30;;;;;;;;;;4498550;28;20045;-58
2022/10/10 09:10:38;;;;;;;2.40;1.20;;;;;;;;;;4493407;28;20030;-58
2022/10/10 09:13:01;;;;;;;1.65;1.20;;;;;;;;;;4483792;28;20079;-58
2022/10/10 09:15:23;;;;;;;1.23;0.88;;;;;;;;;;4491283;28;20045;-58
2022/10/10 09:17:39;;;;;;;1.45;1.02;;;;;;;;;;4498087;28;20064;-58
2022/10/10 09:20:11;;;;;;;1.60;1.15;;;;;;;;;;4487281;28;20140;-58
2022/10/10 09:22:25;;;;;;;1.30;1.10;;;;;;;;;;4492713;28;20093;-58
2022/10/10 09:24:50;;;;;;;1.30;1.00;;;;;;;;;;4494432;28;20217;-58
2022/10/10 09:27:05;;;;;;;1.58;1.08;;;;;;;;;;4493139;28;20030;-58
2022/10/10 09:29:33;;;;;;;2.70;1.23;;;;;;;;;;4487479;28;20112;-58
2022/10/10 09:31:49;;;;;;;1.30;1.00;;;;;;;;;;4492950;28;20059;-59
2022/10/10 09:34:26;;;;;;;2.50;1.15;;;;;;;;;;4489920;28;20586;-58
2022/10/10 09:36:36;;;;;;;1.20;1.00;;;;;;;;;;4480675;28;20134;-58
2022/10/10 09:38:50;;;;;;;2.00;1.17;;;;;;;;;;4490342;28;20515;-58
2022/10/10 09:41:12;;;;;;;1.75;1.27;;;;;;;;;;4490118;28;20129;-58
2022/10/10 09:43:30;;;;;;;1.45;1.30;;;;;;;;;;4494446;28;21211;-58
2022/10/10 09:45:46;;;;;;;1.45;1.10;;;;;;;;;;4488852;28;20289;-58
2022/10/10 09:47:57;;;;;;;1.48;1.02;;;;;;;;;;4491513;28;20562;-58
2022/10/10 09:50:11;;;;;;;1.88;1.30;;;;;;;;;;4493516;28;20034;-58
2022/10/10 09:52:25;;;;;;;1.63;1.20;;;;;;;;;;4476921;28;20045;-58
2022/10/10 09:54:35;;;;;;;2.35;1.00;;;;;;;;;;4495526;28;20457;-58
2022/10/10 09:56:56;;;;;;;1.50;1.20;;;;;;;;;;4494490;28;20030;-58
2022/10/10 09:59:46;;;;;;;1.63;1.23;;;;;;;;;;4491512;28;20038;-58
2022/10/10 10:02:12;;;;;;;1.85;1.10;;;;;;;;;;4497366;28;20037;-58
2022/10/10 10:04:30;;;;;;;1.87;1.10;;;;;;;;;;4492922;28;20137;-61
2022/10/10 10:06:44;;;;;;;1.63;1.00;;;;;;;;;;4492133;28;20297;-58
2022/10/10 10:08:54;;;;;;;1.52;1.20;;;;;;;;;;4497593;28;20037;-58
2022/10/10 10:11:05;;;;;;;1.92;1.13;;;;;;;;;;4491431;28;33272;-58
2022/10/10 10:13:22;;;;;;;1.73;1.00;;;;;;;;;;4493461;28;20039;-58
2022/10/10 10:15:33;;;;;;;2.88;1.08;;;;;;;;;;4493670;28;20054;-58
2022/10/10 10:17:43;;;;;;;2.60;1.40;;;;;;;;;;4492329;28;37927;-59
2022/10/10 10:19:54;;;;;;;1.33;1.10;;;;;;;;;;4492216;28;20045;-58
2022/10/10 10:22:22;;;;;;;1.80;1.10;;;;;;;;;;4492499;28;20026;-58
2022/10/10 10:24:38;;;;;;;1.58;1.00;;;;;;;;;;4500890;28;20137;-58
2022/10/10 10:26:48;;;;;;;1.45;1.10;;;;;;;;;;4493706;28;20040;-58
2022/10/10 10:28:59;;;;;;;1.58;1.23;;;;;;;;;;4490876;28;20581;-58
2022/10/10 10:31:46;;;;;;;1.60;1.00;;;;;;;;;;4492112;28;20713;-58
2022/10/10 10:34:09;;;;;;;1.50;1.10;;;;;;;;;;4506715;28;20743;-58
2022/10/10 10:36:30;;;;;;;2.85;1.20;;;;;;;;;;4492546;28;20595;-58
2022/10/10 10:38:49;;;;;;;1.58;1.10;;;;;;;;;;4492752;28;20026;-58
2022/10/10 10:41:04;;;;;;;2.17;0.90;;;;;;;;;;4491405;28;20077;-58
2022/10/10 10:43:39;;;;;;;1.58;1.00;;;;;;;;;;4494211;28;20587;-58
2022/10/10 10:45:59;;;;;;;2.38;1.10;;;;;;;;;;4492800;28;20128;-58
2022/10/10 10:48:26;;;;;;;2.55;1.02;;;;;;;;;;4491581;28;20069;-58
2022/10/10 10:51:12;;;;;;;2.25;0.95;;;;;;;;;;4496543;28;20042;-58
2022/10/10 10:53:51;;;;;;;1.95;1.00;;;;;;;;;;4490206;28;20956;-58
2022/10/10 10:56:14;;;;;;;1.85;1.20;;;;;;;;;;4491988;28;20160;-58
2022/10/10 10:59:09;;;;;;;1.73;0.90;;;;;;;;;;4495446;28;20046;-58
2022/10/10 11:01:22;;;;;;;2.28;1.10;;;;;;;;;;4490670;28;20114;-58
2022/10/10 11:03:58;;;;;;;2.95;1.15;;;;;;;;;;4493332;28;20034;-58
2022/10/10 11:06:46;;;;;;;1.70;1.10;;;;;;;;;;4497259;28;20739;-59
2022/10/10 11:09:03;;;;;;;1.88;1.10;;;;;;;;;;4492122;28;20038;-58
2022/10/10 11:12:08;;;;;;;2.08;1.00;;;;;;;;;;4493504;28;20035;-58
2022/10/10 11:14:36;;;;;;;1.90;1.05;;;;;;;;;;4412559;29;20044;-58
2022/10/10 11:16:52;;;;;;;1.48;0.98;;;;;;;;;;4486418;28;20140;-58
2022/10/10 11:19:27;;;;;;;3.00;1.30;;;;;;;;;;4489153;28;20100;-58
2022/10/10 11:21:43;;;;;;;1.98;1.00;;;;;;;;;;4493908;28;20242;-58
2022/10/10 11:24:43;;;;;;;1.63;1.10;;;;;;;;;;4490809;28;20026;-58
2022/10/10 11:26:56;;;;;;;1.08;0.82;;;;;;;;;;4489383;28;20173;-58
2022/10/10 11:29:23;;;;;;;1.65;1.00;;;;;;;;;;4501087;28;20038;-58
2022/10/10 11:32:03;;;;;;;2.53;1.15;;;;;;;;;;4477945;28;20042;-58
2022/10/10 11:34:41;;;;;;;1.50;1.02;;;;;;;;;;4500881;28;20164;-59
2022/10/10 11:36:53;;;;;;;2.00;1.05;;;;;;;;;;4466736;28;20663;-59
2022/10/10 11:39:16;;;;;;;1.30;1.10;;;;;;;;;;4496289;28;20046;-59
2022/10/10 11:41:38;;;;;;;1.88;1.00;;;;;;;;;;4496097;28;20034;-59
2022/10/10 11:43:53;;;;;;;2.78;1.10;;;;;;;;;;4496501;28;20030;-59
2022/10/10 11:46:30;;;;;;;1.77;1.15;;;;;;;;;;4499457;28;20038;-59
2022/10/10 11:48:47;;;;;;;1.33;1.00;;;;;;;;;;4491459;28;20073;-59
2022/10/10 11:51:05;;;;;;;1.50;1.10;;;;;;;;;;4499589;28;20602;-58
2022/10/10 11:53:30;;;;;;;2.08;1.30;;;;;;;;;;4493231;28;20611;-58
2022/10/10 11:56:17;;;;;;;1.67;1.10;;;;;;;;;;4494770;28;20045;-58
2022/10/10 11:58:36;;;;;;;1.85;1.20;;;;;;;;;;4484934;28;20045;-57
2022/10/10 12:00:50;;;;;;;1.80;0.90;;;;;;;;;;4492775;28;20172;-58
2022/10/10 12:03:01;;;;;;;1.27;0.90;;;;;;;;;;4481258;28;20027;-63
2022/10/10 12:05:22;;;;;;;1.30;0.80;;;;;;;;;;4490760;28;25563;-60
2022/10/10 12:07:58;;;;;;;2.83;0.90;;;;;;;;;;4498989;28;20038;-58
2022/10/10 12:10:22;;;;;;;1.35;0.90;;;;;;;;;;4490913;28;20109;-58
2022/10/10 12:12:37;;;;;;;1.20;0.90;;;;;;;;;;4490116;28;20038;-58
2022/10/10 12:14:52;;;;;;;1.65;0.80;;;;;;;;;;4499164;28;20089;-58
2022/10/10 12:17:03;;;;;;;1.30;0.82;;;;;;;;;;4500351;28;20124;-58
2022/10/10 12:19:17;;;;;;;1.00;0.90;;;;;;;;;;4490260;28;20022;-58
2022/10/10 12:21:28;;;;;;;1.10;0.80;;;;;;;;;;4484080;28;20093;-59
2022/10/10 12:23:41;;;;;;;2.05;0.90;;;;;;;;;;4499202;28;20599;-58
2022/10/10 12:25:51;;;;;;;1.38;0.73;;;;;;;;;;4490161;28;20038;-58
2022/10/10 12:28:11;;;;;;;1.73;0.90;;;;;;;;;;4489702;28;28131;-58
2022/10/10 12:30:23;;;;;;;1.10;0.80;;;;;;;;;;4488876;28;20121;-58
2022/10/10 12:32:45;;;;;;;1.02;0.73;;;;;;;;;;4490506;28;20643;-58
2022/10/10 12:34:58;;;;;;;1.52;0.90;;;;;;;;;;4489998;28;20060;-58
2022/10/10 12:37:24;;;;;;;1.60;0.80;;;;;;;;;;4488713;28;20038;-58
2022/10/10 12:39:36;;;;;;;1.75;0.80;;;;;;;;;;4490505;28;20058;-58
2022/10/10 12:41:49;;;;;;;1.63;0.70;;;;;;;;;;4490172;28;20590;-58
2022/10/10 12:44:24;;;;;;;1.27;0.80;;;;;;;;;;4490447;28;20069;-58
2022/10/10 12:46:35;;;;;;;1.25;0.70;;;;;;;;;;4490861;28;20508;-58
2022/10/10 12:48:59;;;;;;;1.13;0.80;;;;;;;;;;4491150;28;20038;-58
2022/10/10 12:51:20;;;;;;;1.45;0.70;;;;;;;;;;4489649;28;21350;-58
2022/10/10 12:53:32;;;;;;;1.67;0.90;;;;;;;;;;4490275;28;20088;-58
2022/10/10 12:55:45;;;;;;;1.17;0.80;;;;;;;;;;4493350;28;20053;-58
2022/10/10 12:57:58;;;;;;;0.98;0.60;;;;;;;;;;4488400;28;20038;-58
2022/10/10 13:00:18;;;;;;;1.92;0.90;;;;;;;;;;4492287;28;20128;-58
2022/10/10 13:02:29;;;;;;;1.15;0.80;;;;;;;;;;4489909;28;20069;-58
2022/10/10 13:04:41;;;;;;;1.40;0.70;;;;;;;;;;4491943;28;20120;-58
2022/10/10 13:06:54;;;;;;;1.38;0.60;;;;;;;;;;4488826;28;20149;-57
2022/10/10 13:09:13;;;;;;;1.05;0.70;;;;;;;;;;4492669;28;20499;-57
2022/10/10 13:11:23;;;;;;;0.95;0.70;;;;;;;;;;4490044;28;20042;-58
2022/10/10 13:13:34;;;;;;;1.88;0.80;;;;;;;;;;4488499;28;25240;-58
2022/10/10 13:15:56;;;;;;;0.90;0.70;;;;;;;;;;4489823;28;20042;-57
2022/10/10 13:18:06;;;;;;;1.50;0.80;;;;;;;;;;4490403;28;20137;-57
2022/10/10 13:20:40;;;;;;;0.98;0.80;;;;;;;;;;4490782;28;20527;-57
2022/10/10 13:22:50;;;;;;;1.02;0.90;;;;;;;;;;4473970;28;23057;-57
2022/10/10 13:25:04;;;;;;;1.10;0.70;;;;;;;;;;4493240;28;20042;-57
2022/10/10 13:27:21;;;;;;;1.30;0.93;;;;;;;;;;4492303;28;20038;-57
2022/10/10 13:29:33;;;;;;;1.35;0.82;;;;;;;;;;4497365;28;20089;-57
2022/10/10 13:31:44;;;;;;;1.35;0.88;;;;;;;;;;4498129;28;20092;-57